Airfield :
LOGIN :

Register | Disclaimer

   EN    FR    IT 

 










Legend :    VFR   Marginal VFR   IFR   Intensive IFR   Very Intensive IFR
Visi :
Ceiling :
>= 8 km
>= 3000ft
5 to 8 km
1000 to 3000 ft
1500m to 5 km
500 to 1000 ft
800 to 1500m
200 to 500 ft
< 800m
< 200 ft
Symbols :   Thunderstorms  Fog  Heavy snow  Heavy precipitations  Wind > 20 kt
SIGMETs :     Misc.  Thunderstorms  Icing  Turbulence  Mountain Waves  Volcanic Ashes






- Airport Elevation : 294 ft
- IATA code : NAP


LIRN - Naples Capodichino

CURRENT METAR :
  • 250720Z 06005KT 020V090 CAVOK 03/M08 Q1031 NOSIG

EXPIRED METARs :
  • 250650Z 07007KT CAVOK 02/M08 Q1031 NOSIG
  • 250620Z 05010KT CAVOK 02/M09 Q1031 NOSIG
  • 250550Z 05007KT CAVOK 03/M09 Q1031 NOSIG
  • 250520Z 06006KT 030V090 CAVOK 03/M09 Q1031 NOSIG
  • 250450Z 07009KT CAVOK 03/M09 Q1031 NOSIG

TAF TAF LIRN
Valid from the 25 at 06:00 until the 26 at 06:00 UTC


250500Z 2506/2606 05013KT 9999 SCT030



MET'MAP, your aeronautical weather chart ! - Copyright ORBIFLY December 2007 - Disclaimer

ORBIFLY MET'MAP TEAM :

Programming & Development : Alexandra Zaïnal
Original concept : Baudouin d'Aumeries
Technical & hardware support : Manuel Goepfert
Assistance : Marc-Olivier Méhu

Contact : metmap@orbifly.com




SOURCES & CREDITS :

   NOAA